Flight Track Log - Related Links

Times and Time Zones

All times are in EDT time to prevent confusion due to time zone crossing. See the NKS605 flight status page for this flight to view local times or setup timezone preferences in your user account.

Time Position Orientation Groundspeed Altitude Reporting Facility
EDT Latitude Longitude Course Direction KTS MPH feet Rate Location/Type
Sat 10:16:52 AM 42.2050 -83.3528 180° South 150 173 1,300  Level Cleveland Center
Sat 10:18:16 AM 42.1406 -83.3700 191° South 203 234 3,500 2,260 Climbing Cleveland Center
Sat 10:19:18 AM 42.0728 -83.3728 182° South 242 278 6,800 3,097 Climbing Cleveland Center
Sat 10:20:20 AM 41.9972 -83.3672 177° South 264 304 9,900 2,710 Climbing Cleveland Center
Sat 10:21:22 AM 41.8978 -83.3603 177° South 305 351 12,400 2,516 Climbing Cleveland Center
Sat 10:22:00 AM 41.7509 -83.3333 180° South  Level FlightAware Approximate
Sat 10:22:24 AM 41.8011 -83.3517 176° South 335 386 15,100  Level Cleveland Center
Sat 10:23:26 AM 41.6975 -83.3439 177° South 365 420 16,200 1,403 Climbing Cleveland Center
Sat 10:24:28 AM 41.5836 -83.3375 178° South 404 465 18,000 1,742 Climbing Cleveland Center
Sat 10:25:30 AM 41.4719 -83.3650 190° South 408 470 19,800 1,839 Climbing Cleveland Center
Sat 10:26:32 AM 41.3664 -83.4286 204° Southwest 414 476 21,800 1,742 Climbing Cleveland Center
Sat 10:27:34 AM 41.2583 -83.4897 203° Southwest 417 480 23,400 1,452 Climbing Cleveland Center
Sat 10:28:36 AM 41.1242 -83.5672 204° Southwest 434 499 24,800 1,415 Climbing Cleveland Center
Sat 10:29:37 AM 41.0108 -83.6328 204° Southwest 439 505 26,300 1,268 Climbing Cleveland Center
Sat 10:30:39 AM 40.8967 -83.6981 203° Southwest 445 512 27,400 1,053 Climbing Cleveland Center
Sat 10:31:31 AM 40.8025 -83.7517 203° Southwest 456 525 28,300 1,632 Climbing Indianapolis Center
Sat 10:32:33 AM 40.6867 -83.8178 203° Southwest 457 526 30,500 1,839 Climbing Indianapolis Center
Sat 10:33:35 AM 40.5522 -83.8953 204° Southwest 446 513 32,100 1,403 Climbing Indianapolis Center
Sat 10:34:37 AM 40.4414 -83.9575 203° Southwest 440 506 33,400 1,210 Climbing Indianapolis Center
Sat 10:35:39 AM 40.3303 -84.0200 203° Southwest 437 503 34,600 823 Climbing Indianapolis Center
Sat 10:36:41 AM 40.2106 -84.0572 193° South 453 521 35,100 677 Climbing Indianapolis Center
Sat 10:37:43 AM 40.0836 -84.0772 187° South 458 527 36,000 435 Climbing Indianapolis Center
Sat 10:38:45 AM 39.9583 -84.0986 187° South 458 527 36,000  Level Indianapolis Center
Sat 10:45:22 AM 39.1286 -84.2337 187° South 462 532 36,000  Level FlightAware ADS-B (KCVG)
Sat 10:45:52 AM 39.0624 -84.2444 187° South 462 532 36,000  Level FlightAware ADS-B (KCVG)
Sat 10:46:33 AM 38.9605 -84.2607 187° South 460 529 36,000  Level FlightAware ADS-B (KCVG)
Sat 10:47:03 AM 38.8800 -84.2736 187° South 459 528 36,000  Level FlightAware ADS-B (KCVG)
Sat 10:47:59 AM 38.7630 -84.2925 187° South 459 528 36,000  Level FlightAware ADS-B (KCVG)
Sat 10:48:40 AM 38.6765 -84.3039 183° South 463 533 36,000  Level FlightAware ADS-B (KCVG)
Sat 10:49:10 AM 38.6106 -84.3034 177° South 469 540 36,000  Level FlightAware ADS-B (KCVG)
Sat 10:54:03 AM 38.0082 -84.2106 173° South 471 542 36,000  Level FlightAware ADS-B (KCVG)
Sat 10:54:34 AM 37.9113 -84.1956 173° South 471 542 36,000  Level FlightAware ADS-B (KCVG)
Sat 10:55:59 AM 37.7262 -84.1673 173° South 470 541 36,000  Level FlightAware ADS-B (KCVG)
Sat 10:57:17 AM 37.5580 -84.1415 173° South 471 542 36,000  Level FlightAware ADS-B (KCVG)
Sat 11:00:02 AM 37.2088 -84.0885 173° South 469 540 36,000  Level FlightAware ADS-B (KCVG)
Sat 11:05:42 AM 37.7262 -84.1673 173° South 472 543 36,000  Level FlightAware ADS-B (KMDQ)
Sat 11:06:38 AM 36.3639 -83.9625 173° South 469 540 36,000  Level Indianapolis Center
Sat 11:07:40 AM 36.2325 -83.9428 173° South 469 540 36,000  Level Indianapolis Center
Sat 11:08:42 AM 36.1014 -83.9236 173° South 470 541 36,000  Level Indianapolis Center
Sat 11:09:32 AM 35.9894 -83.9078 173° South 475 547 36,000  Level Atlanta Center
Sat 11:14:55 AM 35.2897 -84.0437 191° South 459 528 36,000  Level FlightAware ADS-B (KDZJ)
Sat 11:15:38 AM 35.1978 -84.0659 191° South 460 529 36,000  Level FlightAware ADS-B (KDZJ)
Sat 11:16:17 AM 35.1119 -84.0864 191° South 460 529 36,000  Level FlightAware ADS-B (KDZJ)
Sat 11:16:52 AM 35.0414 -84.1031 191° South 458 527 36,000  Level FlightAware ADS-B (KDZJ)
Sat 11:17:38 AM 34.9448 -84.1263 191° South 458 527 36,000  Level FlightAware ADS-B (KDZJ)
Sat 11:18:19 AM 34.8537 -84.1481 191° South 457 526 36,000  Level FlightAware ADS-B (KDZJ)
Sat 11:18:55 AM 34.7801 -84.1657 191° South 457 526 36,000  Level FlightAware ADS-B (KDZJ)
Sat 11:19:29 AM 34.7088 -84.1826 191° South 457 526 36,000  Level FlightAware ADS-B (KDZJ)
Sat 11:20:18 AM 34.6033 -84.2073 191° South 456 525 36,000  Level FlightAware ADS-B (KDZJ)
Sat 11:20:58 AM 34.5211 -84.2267 191° South 461 531 36,000  Level FlightAware ADS-B (KDZJ)
Sat 11:21:39 AM 34.4339 -84.2474 191° South 459 528 36,000  Level FlightAware ADS-B (KDZJ)
Sat 11:22:18 AM 34.3512 -84.2668 191° South 456 525 36,000  Level FlightAware ADS-B (KDZJ)
Sat 11:22:59 AM 34.2665 -84.2866 191° South 447 514 36,000  Level FlightAware ADS-B (KDZJ)
Sat 11:23:38 AM 34.1854 -84.3056 191° South 445 512 36,000  Level FlightAware ADS-B (KDZJ)
Sat 11:24:19 AM 34.1027 -84.3250 191° South 444 511 36,000  Level FlightAware ADS-B (KDZJ)
Sat 11:24:58 AM 34.0223 -84.3438 191° South 444 511 36,000  Level FlightAware ADS-B (KDZJ)
Sat 11:25:32 AM 33.9586 -84.3619 191° South 468 539 36,000  Level Atlanta Center
Sat 11:26:32 AM 33.8333 -84.3889 190° South 459 528 36,000  Level Atlanta Center
Sat 11:27:32 AM 33.7122 -84.4183 191° South 454 522 36,000  Level Atlanta Center
Sat 11:28:33 AM 33.5850 -84.4378 187° South 454 522 36,000  Level Atlanta Center
Sat 11:29:32 AM 33.4556 -84.4522 185° South 463 533 36,000 50 Level Atlanta Center
Sat 11:30:32 AM 33.3281 -84.4639 184° South 463 533 36,100 450 Climbing Atlanta Center
Sat 11:31:32 AM 33.1986 -84.4758 184° South 463 533 36,900 450 Climbing Atlanta Center
Sat 11:32:32 AM 33.0881 -84.4825 183° South 458 527 37,000 50 Climbing Atlanta Center
Sat 11:33:32 AM 32.9606 -84.4919 184° South 458 527 37,000  Level Atlanta Center
Sat 11:34:32 AM 32.8311 -84.5011 183° South 464 534 37,000  Level Atlanta Center
Sat 11:35:32 AM 32.6892 -84.4931 177° South 464 534 37,000  Level Atlanta Center
Sat 11:36:32 AM 32.5639 -84.4850 177° South 457 526 37,000  Level Atlanta Center
Sat 11:37:32 AM 32.4347 -84.4794 178° South 457 526 37,000  Level Atlanta Center
Sat 11:38:32 AM 32.3053 -84.4714 177° South 457 526 37,000  Level Atlanta Center
Sat 11:39:32 AM 32.1800 -84.4633 177° South 457 526 37,000  Level Atlanta Center
Sat 11:40:32 AM 32.0528 -84.4556 177° South 457 526 37,000  Level Atlanta Center
Sat 11:41:50 AM 31.9003 -84.4464 177° South 457 526 37,000  Level Jacksonville Center
Sat 11:42:51 AM 31.7731 -84.4394 177° South 457 526 37,000  Level Jacksonville Center
Sat 11:43:51 AM 31.6478 -84.4350 178° South 457 526 37,000  Level Jacksonville Center
Sat 11:44:50 AM 31.5206 -84.4183 174° South 457 526 37,000  Level Jacksonville Center
Sat 11:45:50 AM 31.3958 -84.3650 160° South 462 532 37,000  Level Jacksonville Center
Sat 11:50:58 AM 30.7522 -84.0849 160° South 472 543 37,000  Level FlightAware ADS-B (KONZ)
Sat 11:51:31 AM 30.6855 -84.0568 160° South 470 541 37,000  Level FlightAware ADS-B (KONZ)
Sat 11:52:06 AM 30.6135 -84.0264 160° South 470 541 37,000  Level FlightAware ADS-B (KONZ)
Sat 11:52:46 AM 30.5318 -83.9920 160° South 470 541 37,000  Level FlightAware ADS-B (KONZ)
Sat 11:53:36 AM 30.4300 -83.9492 160° South 470 541 37,000  Level FlightAware ADS-B (KONZ)
Sat 11:54:06 AM 30.3716 -83.9247 160° South 472 543 37,000  Level FlightAware ADS-B (KONZ)
Sat 11:54:54 AM 30.2801 -83.8863 160° South 473 544 37,000  Level FlightAware ADS-B (KONZ)
Sat 11:56:42 AM 30.0460 -83.7885 160° South 473 544 37,000  Level FlightAware ADS-B (KONZ)
Sat 11:57:51 AM 29.9256 -83.7408 160° South 468 539 37,000 -47 Level Jacksonville Center
Sat 11:58:51 AM 29.8006 -83.6897 160° South 468 539 36,900 -250 Descending Jacksonville Center
Sat 11:59:51 AM 29.6778 -83.6383 160° South 468 539 36,500 -700 Descending Jacksonville Center
Sat 12:00:51 PM 29.5528 -83.5850 160° South 468 539 35,500 -958 Descending Jacksonville Center
Sat 12:01:50 PM 29.4256 -83.5339 161° South 473 544 34,600 -958 Descending Jacksonville Center
Sat 12:02:50 PM 29.2986 -83.4831 161° South 478 550 33,600 -850 Descending Jacksonville Center
Sat 12:03:50 PM 29.1694 -83.4300 160° South 488 562 32,900 -300 Descending Jacksonville Center
Sat 12:04:50 PM 29.0422 -83.3794 161° South 488 562 33,000 50 Climbing Jacksonville Center
Sat 12:05:50 PM 28.9150 -83.3242 159° South 488 562 33,000 -300 Level Jacksonville Center
Sat 12:06:50 PM 28.7858 -83.2786 163° South 483 556 32,400 -1,450 Descending Jacksonville Center
Sat 12:07:50 PM 28.6608 -83.2308 161° South 483 556 30,100 -2,750 Descending Jacksonville Center
Sat 12:08:50 PM 28.5189 -83.1808 163° South 484 557 26,900 -1,378 Descending Jacksonville Center
Sat 12:10:05 PM 28.3600 -83.1236 162° South 482 555 27,000 14 Climbing Miami Center
Sat 12:15:52 PM 27.6325 -82.8183 158° South 491 565 27,000 -1,139 Level FlightAware ADS-B
Sat 12:20:37 PM 27.0779 -82.5056 145° Southeast 435 501 15,000 -2,374 Descending FlightAware ADS-B
Sat 12:22:06 PM 26.9278 -82.3869 145° Southeast 424 488 12,200 -1,500 Descending Miami Center
Sat 12:23:05 PM 26.8467 -82.3250 146° Southeast 385 443 11,300 -800 Descending Miami Center
Sat 12:24:06 PM 26.7756 -82.2681 144° Southeast 331 381 10,600 -1,140 Descending Miami Center
Sat 12:25:06 PM 26.7086 -82.2161 145° Southeast 308 354 9,000 -1,550 Descending Miami Center
Sat 12:26:06 PM 26.6439 -82.1622 143° Southeast 300 345 7,500 -1,550 Descending Miami Center
Sat 12:27:06 PM 26.6000 -82.1022 129° Southeast 279 321 5,900 -1,900 Descending Miami Center
Sat 12:28:06 PM 26.5564 -82.0375 127° Southeast 267 307 3,700 -1,450 Descending Miami Center
Sat 12:29:06 PM 26.5150 -81.9731 126° Southeast 262 302 3,000 -400 Descending Miami Center
Sat 12:30:06 PM 26.4772 -81.9203 129° Southeast 239 275 2,900 -100 Descending Miami Center
Sat 12:32:00 PM 26.5333 -81.7500 50° Northeast  Level FlightAware Approximate
Sat 12:39:00 PM 26.5362 -81.7552 50° Northeast  Level Estimated
Sat 12:40:00 PM 26.5333 -81.7500 50° Northeast  Level FlightAware Approximate
Sat 12:41:00 PM 26.5362 -81.7552 50° Northeast  Level Estimated
Sat 12:42:00 PM 26.5333 -81.7500 50° Northeast  Level FlightAware Approximate

Login

Don't have an account? Register now (free) for customized features, flight alerts, and more!